Alleghany, California
Current Conditions -  °F | °C
As of 12:52 PM on Sunday 23 Nov 2014 (Local Time) from KBLU Reporting Station
Broken Clouds Broken Clouds  
Wind Chill:   Ceiling: 12000
Heat Index:   Visibility: 10mi
Dew Point: -7°   Wind: 5mph
Humidity: 33%   Direction: 260°W
Pressure: 30.31"   Gusts: NA
Location:  39.47°N, 120.85°W
Report Text: KBLU 232052Z AUTO 26004KT 10SM BKN120 09/M07 A3031 RMK AO2 SLP245 T00891067 58006
Loading
Personal Weather Stations






























Interactive Weather Map New forecast layout! Learn more

10-Day Weather Forecast

Advertisements
Track Severe Weather on mobile